sensor_id;sensor_type;location;lat;lon;timestamp;P1;durP1;ratioP1;P2;durP2;ratioP2
59876;SDS011;45749;51.140;17.184;2023-05-17T00:02:23;18.30;;;12.70;;
59876;SDS011;45749;51.140;17.184;2023-05-17T00:04:48;16.17;;;13.35;;
59876;SDS011;45749;51.140;17.184;2023-05-17T00:07:14;14.48;;;11.85;;
59876;SDS011;45749;51.140;17.184;2023-05-17T00:09:39;16.88;;;14.10;;
59876;SDS011;45749;51.140;17.184;2023-05-17T00:12:05;16.55;;;13.25;;
59876;SDS011;45749;51.140;17.184;2023-05-17T00:14:30;16.92;;;13.60;;
59876;SDS011;45749;51.140;17.184;2023-05-17T00:16:56;20.08;;;13.43;;
59876;SDS011;45749;51.140;17.184;2023-05-17T00:19:21;15.43;;;13.68;;
59876;SDS011;45749;51.140;17.184;2023-05-17T00:21:46;15.98;;;12.90;;
59876;SDS011;45749;51.140;17.184;2023-05-17T00:24:11;17.63;;;13.27;;
59876;SDS011;45749;51.140;17.184;2023-05-17T00:26:37;15.10;;;12.13;;
59876;SDS011;45749;51.140;17.184;2023-05-17T00:29:02;19.40;;;14.30;;
59876;SDS011;45749;51.140;17.184;2023-05-17T00:31:27;15.82;;;13.57;;
59876;SDS011;45749;51.140;17.184;2023-05-17T00:33:53;13.65;;;12.25;;
59876;SDS011;45749;51.140;17.184;2023-05-17T00:36:18;14.15;;;12.38;;
59876;SDS011;45749;51.140;17.184;2023-05-17T00:38:43;16.08;;;13.77;;
59876;SDS011;45749;51.140;17.184;2023-05-17T00:41:09;14.85;;;12.52;;
59876;SDS011;45749;51.140;17.184;2023-05-17T00:43:34;17.67;;;12.85;;
59876;SDS011;45749;51.140;17.184;2023-05-17T00:45:59;15.05;;;12.98;;
59876;SDS011;45749;51.140;17.184;2023-05-17T00:48:25;16.35;;;13.20;;
59876;SDS011;45749;51.140;17.184;2023-05-17T00:50:52;13.65;;;12.23;;
59876;SDS011;45749;51.140;17.184;2023-05-17T00:53:19;15.48;;;12.38;;
59876;SDS011;45749;51.140;17.184;2023-05-17T00:55:44;13.52;;;11.95;;
59876;SDS011;45749;51.140;17.184;2023-05-17T00:58:10;16.77;;;11.85;;
59876;SDS011;45749;51.140;17.184;2023-05-17T01:00:36;18.05;;;12.90;;
59876;SDS011;45749;51.140;17.184;2023-05-17T01:03:02;14.43;;;12.35;;
59876;SDS011;45749;51.140;17.184;2023-05-17T01:05:28;14.65;;;12.15;;
59876;SDS011;45749;51.140;17.184;2023-05-17T01:07:54;17.15;;;11.50;;
59876;SDS011;45749;51.140;17.184;2023-05-17T01:10:19;17.10;;;11.90;;
59876;SDS011;45749;51.140;17.184;2023-05-17T01:13:02;16.23;;;11.43;;
59876;SDS011;45749;51.140;17.184;2023-05-17T01:15:35;13.85;;;10.80;;
59876;SDS011;45749;51.140;17.184;2023-05-17T01:18:22;12.60;;;10.32;;
59876;SDS011;45749;51.140;17.184;2023-05-17T01:21:05;12.40;;;10.70;;
59876;SDS011;45749;51.140;17.184;2023-05-17T01:26:57;10.88;;;9.77;;
59876;SDS011;45749;51.140;17.184;2023-05-17T01:29:25;12.38;;;9.65;;
59876;SDS011;45749;51.140;17.184;2023-05-17T01:31:53;12.93;;;9.80;;
59876;SDS011;45749;51.140;17.184;2023-05-17T01:34:27;15.63;;;10.25;;
59876;SDS011;45749;51.140;17.184;2023-05-17T01:36:53;13.65;;;9.60;;
59876;SDS011;45749;51.140;17.184;2023-05-17T01:39:18;11.32;;;8.40;;
59876;SDS011;45749;51.140;17.184;2023-05-17T01:42:06;11.65;;;9.18;;
59876;SDS011;45749;51.140;17.184;2023-05-17T01:47:28;10.25;;;8.82;;
59876;SDS011;45749;51.140;17.184;2023-05-17T01:49:57;13.30;;;8.27;;
59876;SDS011;45749;51.140;17.184;2023-05-17T01:52:28;12.95;;;8.63;;
59876;SDS011;45749;51.140;17.184;2023-05-17T01:55:07;10.85;;;7.97;;
59876;SDS011;45749;51.140;17.184;2023-05-17T01:57:40;11.98;;;9.30;;
59876;SDS011;45749;51.140;17.184;2023-05-17T02:00:08;15.45;;;9.60;;
59876;SDS011;45749;51.140;17.184;2023-05-17T02:02:35;13.75;;;8.32;;
59876;SDS011;45749;51.140;17.184;2023-05-17T02:05:01;9.00;;;8.00;;
59876;SDS011;45749;51.140;17.184;2023-05-17T02:07:26;11.45;;;8.85;;
59876;SDS011;45749;51.140;17.184;2023-05-17T02:09:52;13.63;;;8.23;;
59876;SDS011;45749;51.140;17.184;2023-05-17T02:12:17;9.60;;;7.40;;
59876;SDS011;45749;51.140;17.184;2023-05-17T02:14:42;10.80;;;8.23;;
59876;SDS011;45749;51.140;17.184;2023-05-17T02:17:07;10.10;;;8.65;;
59876;SDS011;45749;51.140;17.184;2023-05-17T02:19:33;11.10;;;7.63;;
59876;SDS011;45749;51.140;17.184;2023-05-17T02:21:59;12.65;;;8.40;;
59876;SDS011;45749;51.140;17.184;2023-05-17T02:24:24;11.00;;;7.47;;
59876;SDS011;45749;51.140;17.184;2023-05-17T02:26:50;8.23;;;7.07;;
59876;SDS011;45749;51.140;17.184;2023-05-17T02:29:15;7.50;;;6.80;;
59876;SDS011;45749;51.140;17.184;2023-05-17T02:31:40;8.57;;;6.88;;
59876;SDS011;45749;51.140;17.184;2023-05-17T02:34:06;10.55;;;7.05;;
59876;SDS011;45749;51.140;17.184;2023-05-17T02:36:31;8.70;;;6.40;;
59876;SDS011;45749;51.140;17.184;2023-05-17T02:38:56;7.95;;;5.90;;
59876;SDS011;45749;51.140;17.184;2023-05-17T02:41:22;12.57;;;6.03;;
59876;SDS011;45749;51.140;17.184;2023-05-17T02:43:47;10.75;;;6.53;;
59876;SDS011;45749;51.140;17.184;2023-05-17T02:46:13;11.55;;;6.38;;
59876;SDS011;45749;51.140;17.184;2023-05-17T02:48:38;10.57;;;5.75;;
59876;SDS011;45749;51.140;17.184;2023-05-17T02:51:03;8.68;;;6.28;;
59876;SDS011;45749;51.140;17.184;2023-05-17T02:53:29;8.43;;;5.60;;
59876;SDS011;45749;51.140;17.184;2023-05-17T02:55:55;10.13;;;5.63;;
59876;SDS011;45749;51.140;17.184;2023-05-17T02:58:22;8.95;;;5.50;;
59876;SDS011;45749;51.140;17.184;2023-05-17T03:00:48;9.65;;;5.53;;
59876;SDS011;45749;51.140;17.184;2023-05-17T03:03:14;9.32;;;6.07;;
59876;SDS011;45749;51.140;17.184;2023-05-17T03:05:39;34.58;;;6.22;;
59876;SDS011;45749;51.140;17.184;2023-05-17T03:08:05;8.68;;;5.50;;
59876;SDS011;45749;51.140;17.184;2023-05-17T03:10:30;11.55;;;6.45;;
59876;SDS011;45749;51.140;17.184;2023-05-17T03:12:55;10.90;;;5.93;;
59876;SDS011;45749;51.140;17.184;2023-05-17T03:15:21;9.38;;;5.50;;
59876;SDS011;45749;51.140;17.184;2023-05-17T03:17:46;10.57;;;6.07;;
59876;SDS011;45749;51.140;17.184;2023-05-17T03:20:11;9.95;;;6.15;;
59876;SDS011;45749;51.140;17.184;2023-05-17T03:22:37;8.25;;;6.15;;
59876;SDS011;45749;51.140;17.184;2023-05-17T03:25:02;8.82;;;6.32;;
59876;SDS011;45749;51.140;17.184;2023-05-17T03:27:29;9.98;;;4.90;;
59876;SDS011;45749;51.140;17.184;2023-05-17T03:29:54;8.30;;;5.20;;
59876;SDS011;45749;51.140;17.184;2023-05-17T03:32:20;8.57;;;5.75;;
59876;SDS011;45749;51.140;17.184;2023-05-17T03:34:45;9.25;;;5.25;;
59876;SDS011;45749;51.140;17.184;2023-05-17T03:37:10;6.75;;;5.80;;
59876;SDS011;45749;51.140;17.184;2023-05-17T03:39:36;10.35;;;5.10;;
59876;SDS011;45749;51.140;17.184;2023-05-17T03:42:01;9.05;;;4.65;;
59876;SDS011;45749;51.140;17.184;2023-05-17T03:44:27;10.88;;;5.75;;
59876;SDS011;45749;51.140;17.184;2023-05-17T03:46:52;6.60;;;5.20;;
59876;SDS011;45749;51.140;17.184;2023-05-17T03:49:18;8.88;;;5.35;;
59876;SDS011;45749;51.140;17.184;2023-05-17T03:51:43;8.73;;;5.05;;
59876;SDS011;45749;51.140;17.184;2023-05-17T03:54:19;8.45;;;5.68;;
59876;SDS011;45749;51.140;17.184;2023-05-17T03:56:44;11.15;;;5.60;;
59876;SDS011;45749;51.140;17.184;2023-05-17T03:59:11;9.38;;;5.53;;
59876;SDS011;45749;51.140;17.184;2023-05-17T04:01:37;8.50;;;5.45;;
59876;SDS011;45749;51.140;17.184;2023-05-17T04:04:03;7.68;;;4.30;;
59876;SDS011;45749;51.140;17.184;2023-05-17T04:06:29;8.48;;;4.80;;
59876;SDS011;45749;51.140;17.184;2023-05-17T04:08:55;9.13;;;4.32;;
59876;SDS011;45749;51.140;17.184;2023-05-17T04:11:20;10.57;;;4.97;;
59876;SDS011;45749;51.140;17.184;2023-05-17T04:13:48;6.82;;;4.85;;
59876;SDS011;45749;51.140;17.184;2023-05-17T04:16:13;8.90;;;4.22;;
59876;SDS011;45749;51.140;17.184;2023-05-17T04:18:39;5.95;;;4.03;;
59876;SDS011;45749;51.140;17.184;2023-05-17T04:21:05;7.53;;;4.15;;
59876;SDS011;45749;51.140;17.184;2023-05-17T04:23:31;8.98;;;4.30;;
59876;SDS011;45749;51.140;17.184;2023-05-17T04:25:57;6.68;;;3.97;;
59876;SDS011;45749;51.140;17.184;2023-05-17T04:28:23;9.45;;;4.00;;
59876;SDS011;45749;51.140;17.184;2023-05-17T04:30:48;6.68;;;3.28;;
59876;SDS011;45749;51.140;17.184;2023-05-17T04:33:14;7.00;;;3.33;;
59876;SDS011;45749;51.140;17.184;2023-05-17T04:35:40;7.25;;;3.08;;
59876;SDS011;45749;51.140;17.184;2023-05-17T04:38:06;6.10;;;3.60;;
59876;SDS011;45749;51.140;17.184;2023-05-17T04:40:32;7.75;;;4.07;;
59876;SDS011;45749;51.140;17.184;2023-05-17T04:42:58;4.95;;;3.05;;
59876;SDS011;45749;51.140;17.184;2023-05-17T04:45:23;7.47;;;3.38;;
59876;SDS011;45749;51.140;17.184;2023-05-17T04:47:49;7.05;;;3.53;;
59876;SDS011;45749;51.140;17.184;2023-05-17T04:50:15;5.85;;;3.42;;
59876;SDS011;45749;51.140;17.184;2023-05-17T04:52:40;8.07;;;3.42;;
59876;SDS011;45749;51.140;17.184;2023-05-17T04:55:06;6.65;;;3.63;;
59876;SDS011;45749;51.140;17.184;2023-05-17T04:57:31;8.20;;;3.95;;
59876;SDS011;45749;51.140;17.184;2023-05-17T04:59:57;9.27;;;3.47;;
59876;SDS011;45749;51.140;17.184;2023-05-17T05:02:22;7.32;;;3.00;;
59876;SDS011;45749;51.140;17.184;2023-05-17T05:04:47;9.18;;;3.45;;
59876;SDS011;45749;51.140;17.184;2023-05-17T05:07:13;6.95;;;3.08;;
59876;SDS011;45749;51.140;17.184;2023-05-17T05:09:38;5.25;;;3.05;;
59876;SDS011;45749;51.140;17.184;2023-05-17T05:12:03;4.22;;;2.70;;
59876;SDS011;45749;51.140;17.184;2023-05-17T05:14:29;5.35;;;2.55;;
59876;SDS011;45749;51.140;17.184;2023-05-17T05:16:54;7.32;;;3.35;;
59876;SDS011;45749;51.140;17.184;2023-05-17T05:19:20;6.65;;;3.00;;
59876;SDS011;45749;51.140;17.184;2023-05-17T05:21:45;6.95;;;2.85;;
59876;SDS011;45749;51.140;17.184;2023-05-17T05:24:10;5.28;;;2.95;;
59876;SDS011;45749;51.140;17.184;2023-05-17T05:26:36;7.07;;;2.90;;
59876;SDS011;45749;51.140;17.184;2023-05-17T05:29:01;7.63;;;2.65;;
59876;SDS011;45749;51.140;17.184;2023-05-17T05:31:26;5.00;;;2.92;;
59876;SDS011;45749;51.140;17.184;2023-05-17T05:33:52;7.55;;;3.55;;
59876;SDS011;45749;51.140;17.184;2023-05-17T05:36:17;4.05;;;2.63;;
59876;SDS011;45749;51.140;17.184;2023-05-17T05:38:42;10.90;;;3.53;;
59876;SDS011;45749;51.140;17.184;2023-05-17T05:41:08;5.35;;;3.05;;
59876;SDS011;45749;51.140;17.184;2023-05-17T05:43:33;8.05;;;2.90;;
59876;SDS011;45749;51.140;17.184;2023-05-17T05:46:00;6.18;;;3.15;;
59876;SDS011;45749;51.140;17.184;2023-05-17T05:48:25;5.70;;;2.45;;
59876;SDS011;45749;51.140;17.184;2023-05-17T05:50:50;6.18;;;2.83;;
59876;SDS011;45749;51.140;17.184;2023-05-17T05:53:16;6.53;;;3.05;;
59876;SDS011;45749;51.140;17.184;2023-05-17T05:55:41;9.68;;;3.35;;
59876;SDS011;45749;51.140;17.184;2023-05-17T05:58:07;9.45;;;2.67;;
59876;SDS011;45749;51.140;17.184;2023-05-17T06:00:32;9.45;;;2.58;;
59876;SDS011;45749;51.140;17.184;2023-05-17T06:02:58;8.10;;;2.50;;
59876;SDS011;45749;51.140;17.184;2023-05-17T06:05:23;6.85;;;2.75;;
59876;SDS011;45749;51.140;17.184;2023-05-17T06:07:49;5.30;;;2.38;;
59876;SDS011;45749;51.140;17.184;2023-05-17T06:10:14;4.95;;;2.60;;
59876;SDS011;45749;51.140;17.184;2023-05-17T06:12:39;7.32;;;2.25;;
59876;SDS011;45749;51.140;17.184;2023-05-17T06:15:05;3.08;;;1.88;;
59876;SDS011;45749;51.140;17.184;2023-05-17T06:17:31;10.50;;;2.85;;
59876;SDS011;45749;51.140;17.184;2023-05-17T06:19:56;10.48;;;2.53;;
59876;SDS011;45749;51.140;17.184;2023-05-17T06:22:21;5.90;;;2.05;;
59876;SDS011;45749;51.140;17.184;2023-05-17T06:24:46;9.35;;;2.67;;
59876;SDS011;45749;51.140;17.184;2023-05-17T06:27:12;6.82;;;2.78;;
59876;SDS011;45749;51.140;17.184;2023-05-17T06:29:37;4.82;;;2.15;;
59876;SDS011;45749;51.140;17.184;2023-05-17T06:32:03;2.20;;;1.75;;
59876;SDS011;45749;51.140;17.184;2023-05-17T06:34:28;4.90;;;2.03;;
59876;SDS011;45749;51.140;17.184;2023-05-17T06:36:53;7.05;;;2.95;;
59876;SDS011;45749;51.140;17.184;2023-05-17T06:39:19;4.70;;;2.30;;
59876;SDS011;45749;51.140;17.184;2023-05-17T06:41:44;10.38;;;2.92;;
59876;SDS011;45749;51.140;17.184;2023-05-17T06:44:09;6.57;;;2.45;;
59876;SDS011;45749;51.140;17.184;2023-05-17T06:46:35;5.90;;;2.13;;
59876;SDS011;45749;51.140;17.184;2023-05-17T06:49:01;5.82;;;2.40;;
59876;SDS011;45749;51.140;17.184;2023-05-17T06:51:26;4.80;;;2.40;;
59876;SDS011;45749;51.140;17.184;2023-05-17T06:53:51;9.48;;;2.67;;
59876;SDS011;45749;51.140;17.184;2023-05-17T06:56:16;6.10;;;2.50;;
59876;SDS011;45749;51.140;17.184;2023-05-17T06:58:42;6.22;;;2.72;;
59876;SDS011;45749;51.140;17.184;2023-05-17T07:01:07;5.03;;;2.22;;
59876;SDS011;45749;51.140;17.184;2023-05-17T07:03:32;7.68;;;2.20;;
59876;SDS011;45749;51.140;17.184;2023-05-17T07:05:58;5.00;;;2.92;;
59876;SDS011;45749;51.140;17.184;2023-05-17T07:08:24;5.68;;;2.95;;
59876;SDS011;45749;51.140;17.184;2023-05-17T07:10:50;7.68;;;2.60;;
59876;SDS011;45749;51.140;17.184;2023-05-17T07:13:16;9.73;;;4.00;;
59876;SDS011;45749;51.140;17.184;2023-05-17T07:15:42;13.65;;;3.17;;
59876;SDS011;45749;51.140;17.184;2023-05-17T07:18:07;6.75;;;2.47;;
59876;SDS011;45749;51.140;17.184;2023-05-17T07:20:32;11.23;;;2.75;;
59876;SDS011;45749;51.140;17.184;2023-05-17T07:22:58;7.65;;;2.80;;
59876;SDS011;45749;51.140;17.184;2023-05-17T07:25:23;11.05;;;2.80;;
59876;SDS011;45749;51.140;17.184;2023-05-17T07:27:48;8.40;;;2.55;;
59876;SDS011;45749;51.140;17.184;2023-05-17T07:30:14;7.22;;;2.88;;
59876;SDS011;45749;51.140;17.184;2023-05-17T07:32:39;6.55;;;2.47;;
59876;SDS011;45749;51.140;17.184;2023-05-17T07:35:04;8.13;;;2.47;;
59876;SDS011;45749;51.140;17.184;2023-05-17T07:37:30;6.25;;;2.63;;
59876;SDS011;45749;51.140;17.184;2023-05-17T07:39:55;11.95;;;3.70;;
59876;SDS011;45749;51.140;17.184;2023-05-17T07:42:20;8.35;;;2.70;;
59876;SDS011;45749;51.140;17.184;2023-05-17T07:44:46;8.07;;;2.50;;
59876;SDS011;45749;51.140;17.184;2023-05-17T07:47:13;4.20;;;2.50;;
59876;SDS011;45749;51.140;17.184;2023-05-17T07:49:39;10.13;;;2.90;;
59876;SDS011;45749;51.140;17.184;2023-05-17T07:52:04;7.85;;;3.20;;
59876;SDS011;45749;51.140;17.184;2023-05-17T07:54:30;13.38;;;3.90;;
59876;SDS011;45749;51.140;17.184;2023-05-17T07:56:55;8.45;;;3.15;;
59876;SDS011;45749;51.140;17.184;2023-05-17T07:59:21;11.52;;;3.35;;
59876;SDS011;45749;51.140;17.184;2023-05-17T08:01:46;8.25;;;2.97;;
59876;SDS011;45749;51.140;17.184;2023-05-17T08:04:12;6.53;;;2.75;;
59876;SDS011;45749;51.140;17.184;2023-05-17T08:06:41;10.27;;;3.13;;
59876;SDS011;45749;51.140;17.184;2023-05-17T08:09:14;9.98;;;3.30;;
59876;SDS011;45749;51.140;17.184;2023-05-17T08:11:40;11.40;;;3.28;;
59876;SDS011;45749;51.140;17.184;2023-05-17T08:14:15;10.52;;;3.47;;
59876;SDS011;45749;51.140;17.184;2023-05-17T08:16:41;9.48;;;3.60;;
59876;SDS011;45749;51.140;17.184;2023-05-17T08:19:09;6.82;;;3.08;;
59876;SDS011;45749;51.140;17.184;2023-05-17T08:21:39;8.55;;;3.95;;
59876;SDS011;45749;51.140;17.184;2023-05-17T08:24:06;9.02;;;3.25;;
59876;SDS011;45749;51.140;17.184;2023-05-17T08:26:32;10.10;;;3.78;;
59876;SDS011;45749;51.140;17.184;2023-05-17T08:28:57;12.00;;;3.88;;
59876;SDS011;45749;51.140;17.184;2023-05-17T08:31:23;11.23;;;4.18;;
59876;SDS011;45749;51.140;17.184;2023-05-17T08:33:48;7.07;;;3.20;;
59876;SDS011;45749;51.140;17.184;2023-05-17T08:36:13;6.88;;;3.50;;
59876;SDS011;45749;51.140;17.184;2023-05-17T08:38:39;10.15;;;4.00;;
59876;SDS011;45749;51.140;17.184;2023-05-17T08:41:05;9.20;;;4.05;;
59876;SDS011;45749;51.140;17.184;2023-05-17T08:43:30;11.07;;;5.55;;
59876;SDS011;45749;51.140;17.184;2023-05-17T08:45:56;6.55;;;3.22;;
59876;SDS011;45749;51.140;17.184;2023-05-17T08:48:23;6.93;;;3.40;;
59876;SDS011;45749;51.140;17.184;2023-05-17T08:50:50;13.25;;;3.90;;
59876;SDS011;45749;51.140;17.184;2023-05-17T08:53:18;11.07;;;4.82;;
59876;SDS011;45749;51.140;17.184;2023-05-17T08:55:44;11.70;;;4.47;;
59876;SDS011;45749;51.140;17.184;2023-05-17T08:58:13;9.55;;;3.72;;
59876;SDS011;45749;51.140;17.184;2023-05-17T09:00:43;18.52;;;3.97;;
59876;SDS011;45749;51.140;17.184;2023-05-17T09:03:10;14.73;;;4.47;;
59876;SDS011;45749;51.140;17.184;2023-05-17T09:05:41;7.40;;;4.18;;
59876;SDS011;45749;51.140;17.184;2023-05-17T09:08:07;11.32;;;4.30;;
59876;SDS011;45749;51.140;17.184;2023-05-17T09:10:32;8.00;;;3.78;;
59876;SDS011;45749;51.140;17.184;2023-05-17T09:12:58;11.25;;;4.60;;
59876;SDS011;45749;51.140;17.184;2023-05-17T09:15:23;10.20;;;4.63;;
59876;SDS011;45749;51.140;17.184;2023-05-17T09:17:54;7.97;;;4.07;;
59876;SDS011;45749;51.140;17.184;2023-05-17T09:20:25;9.27;;;4.57;;
59876;SDS011;45749;51.140;17.184;2023-05-17T09:23:02;12.98;;;4.00;;
59876;SDS011;45749;51.140;17.184;2023-05-17T09:25:29;8.05;;;4.10;;
59876;SDS011;45749;51.140;17.184;2023-05-17T09:27:57;9.55;;;4.47;;
59876;SDS011;45749;51.140;17.184;2023-05-17T09:30:26;14.07;;;4.50;;
59876;SDS011;45749;51.140;17.184;2023-05-17T09:32:52;10.45;;;3.30;;
59876;SDS011;45749;51.140;17.184;2023-05-17T09:35:17;9.75;;;4.32;;
59876;SDS011;45749;51.140;17.184;2023-05-17T09:38:05;12.18;;;4.45;;
59876;SDS011;45749;51.140;17.184;2023-05-17T09:40:31;11.55;;;4.40;;
59876;SDS011;45749;51.140;17.184;2023-05-17T09:42:57;12.23;;;4.60;;
59876;SDS011;45749;51.140;17.184;2023-05-17T09:45:23;10.85;;;5.10;;
59876;SDS011;45749;51.140;17.184;2023-05-17T09:47:49;12.02;;;5.20;;
59876;SDS011;45749;51.140;17.184;2023-05-17T09:50:18;9.30;;;3.92;;
59876;SDS011;45749;51.140;17.184;2023-05-17T09:52:47;11.68;;;4.40;;
59876;SDS011;45749;51.140;17.184;2023-05-17T09:55:13;10.05;;;4.00;;
59876;SDS011;45749;51.140;17.184;2023-05-17T09:57:39;8.23;;;3.83;;
59876;SDS011;45749;51.140;17.184;2023-05-17T10:00:06;11.13;;;3.92;;
59876;SDS011;45749;51.140;17.184;2023-05-17T10:02:36;9.40;;;4.13;;
59876;SDS011;45749;51.140;17.184;2023-05-17T10:05:03;10.00;;;5.03;;
59876;SDS011;45749;51.140;17.184;2023-05-17T10:07:29;11.50;;;4.60;;
59876;SDS011;45749;51.140;17.184;2023-05-17T10:09:56;12.70;;;4.15;;
59876;SDS011;45749;51.140;17.184;2023-05-17T10:12:22;10.55;;;4.10;;
59876;SDS011;45749;51.140;17.184;2023-05-17T10:14:49;6.32;;;3.65;;
59876;SDS011;45749;51.140;17.184;2023-05-17T10:17:16;12.43;;;4.78;;
59876;SDS011;45749;51.140;17.184;2023-05-17T10:19:43;10.93;;;4.30;;
59876;SDS011;45749;51.140;17.184;2023-05-17T10:22:09;11.70;;;3.85;;
59876;SDS011;45749;51.140;17.184;2023-05-17T10:24:35;8.40;;;3.90;;
59876;SDS011;45749;51.140;17.184;2023-05-17T10:27:02;12.82;;;4.80;;
59876;SDS011;45749;51.140;17.184;2023-05-17T10:29:29;7.65;;;3.40;;
59876;SDS011;45749;51.140;17.184;2023-05-17T10:31:58;9.98;;;4.00;;
59876;SDS011;45749;51.140;17.184;2023-05-17T10:34:27;7.40;;;3.60;;
59876;SDS011;45749;51.140;17.184;2023-05-17T10:36:54;11.43;;;3.85;;
59876;SDS011;45749;51.140;17.184;2023-05-17T10:39:20;9.52;;;4.57;;
59876;SDS011;45749;51.140;17.184;2023-05-17T10:41:46;8.20;;;4.05;;
59876;SDS011;45749;51.140;17.184;2023-05-17T10:44:16;10.00;;;3.55;;
59876;SDS011;45749;51.140;17.184;2023-05-17T10:46:55;9.93;;;3.65;;
59876;SDS011;45749;51.140;17.184;2023-05-17T10:49:25;14.35;;;4.15;;
59876;SDS011;45749;51.140;17.184;2023-05-17T10:51:58;10.98;;;4.53;;
59876;SDS011;45749;51.140;17.184;2023-05-17T10:54:37;7.68;;;3.17;;
59876;SDS011;45749;51.140;17.184;2023-05-17T10:57:08;9.45;;;3.35;;
59876;SDS011;45749;51.140;17.184;2023-05-17T10:59:59;9.45;;;3.63;;
59876;SDS011;45749;51.140;17.184;2023-05-17T11:02:27;14.27;;;4.18;;
59876;SDS011;45749;51.140;17.184;2023-05-17T11:04:53;6.82;;;3.20;;
59876;SDS011;45749;51.140;17.184;2023-05-17T11:09:49;7.28;;;3.10;;
59876;SDS011;45749;51.140;17.184;2023-05-17T11:12:26;7.47;;;3.47;;
59876;SDS011;45749;51.140;17.184;2023-05-17T11:14:55;10.27;;;3.80;;
59876;SDS011;45749;51.140;17.184;2023-05-17T11:17:22;8.32;;;3.83;;
59876;SDS011;45749;51.140;17.184;2023-05-17T11:19:54;9.57;;;3.00;;
59876;SDS011;45749;51.140;17.184;2023-05-17T11:22:24;7.60;;;2.92;;
59876;SDS011;45749;51.140;17.184;2023-05-17T11:24:50;14.07;;;4.10;;
59876;SDS011;45749;51.140;17.184;2023-05-17T11:27:20;8.15;;;3.42;;
59876;SDS011;45749;51.140;17.184;2023-05-17T11:29:51;8.18;;;2.60;;
59876;SDS011;45749;51.140;17.184;2023-05-17T11:32:30;7.28;;;2.85;;
59876;SDS011;45749;51.140;17.184;2023-05-17T11:34:59;9.18;;;3.25;;
59876;SDS011;45749;51.140;17.184;2023-05-17T11:37:25;6.82;;;2.78;;
59876;SDS011;45749;51.140;17.184;2023-05-17T11:42:30;6.07;;;2.72;;
59876;SDS011;45749;51.140;17.184;2023-05-17T11:44:56;7.35;;;2.90;;
59876;SDS011;45749;51.140;17.184;2023-05-17T11:47:25;7.75;;;3.83;;
59876;SDS011;45749;51.140;17.184;2023-05-17T11:49:51;9.13;;;2.67;;
59876;SDS011;45749;51.140;17.184;2023-05-17T11:52:18;7.32;;;2.72;;
59876;SDS011;45749;51.140;17.184;2023-05-17T11:54:44;8.02;;;2.65;;
59876;SDS011;45749;51.140;17.184;2023-05-17T11:57:10;7.32;;;3.10;;
59876;SDS011;45749;51.140;17.184;2023-05-17T11:59:37;9.70;;;3.45;;
59876;SDS011;45749;51.140;17.184;2023-05-17T12:02:07;12.10;;;3.03;;
59876;SDS011;45749;51.140;17.184;2023-05-17T12:04:35;8.23;;;3.80;;
59876;SDS011;45749;51.140;17.184;2023-05-17T12:07:07;8.98;;;3.35;;
59876;SDS011;45749;51.140;17.184;2023-05-17T12:09:33;10.68;;;3.20;;
59876;SDS011;45749;51.140;17.184;2023-05-17T12:12:01;5.72;;;3.30;;
59876;SDS011;45749;51.140;17.184;2023-05-17T12:14:28;6.85;;;3.35;;
59876;SDS011;45749;51.140;17.184;2023-05-17T12:16:53;5.28;;;2.70;;
59876;SDS011;45749;51.140;17.184;2023-05-17T12:19:23;7.30;;;2.75;;
59876;SDS011;45749;51.140;17.184;2023-05-17T12:21:50;4.78;;;2.33;;
59876;SDS011;45749;51.140;17.184;2023-05-17T12:24:16;4.65;;;2.80;;
59876;SDS011;45749;51.140;17.184;2023-05-17T12:26:42;6.13;;;2.60;;
59876;SDS011;45749;51.140;17.184;2023-05-17T12:29:09;5.28;;;2.55;;
59876;SDS011;45749;51.140;17.184;2023-05-17T12:31:38;4.47;;;2.00;;
59876;SDS011;45749;51.140;17.184;2023-05-17T12:34:06;6.65;;;3.03;;
59876;SDS011;45749;51.140;17.184;2023-05-17T12:36:40;4.07;;;2.08;;
59876;SDS011;45749;51.140;17.184;2023-05-17T12:39:06;4.93;;;2.30;;
59876;SDS011;45749;51.140;17.184;2023-05-17T12:41:34;6.15;;;2.92;;
59876;SDS011;45749;51.140;17.184;2023-05-17T12:44:00;7.38;;;3.30;;
59876;SDS011;45749;51.140;17.184;2023-05-17T12:46:26;5.95;;;3.05;;
59876;SDS011;45749;51.140;17.184;2023-05-17T12:48:52;6.18;;;2.42;;
59876;SDS011;45749;51.140;17.184;2023-05-17T12:51:18;6.30;;;2.72;;
59876;SDS011;45749;51.140;17.184;2023-05-17T12:53:49;7.65;;;2.70;;
59876;SDS011;45749;51.140;17.184;2023-05-17T12:56:23;7.32;;;2.95;;
59876;SDS011;45749;51.140;17.184;2023-05-17T13:01:36;6.38;;;3.47;;
59876;SDS011;45749;51.140;17.184;2023-05-17T13:04:03;5.10;;;2.40;;
59876;SDS011;45749;51.140;17.184;2023-05-17T13:06:43;5.25;;;2.72;;
59876;SDS011;45749;51.140;17.184;2023-05-17T13:09:09;5.95;;;2.70;;
59876;SDS011;45749;51.140;17.184;2023-05-17T13:11:35;8.68;;;3.15;;
59876;SDS011;45749;51.140;17.184;2023-05-17T13:14:05;4.03;;;2.08;;
59876;SDS011;45749;51.140;17.184;2023-05-17T13:16:31;4.90;;;2.50;;
59876;SDS011;45749;51.140;17.184;2023-05-17T13:18:56;8.10;;;2.65;;
59876;SDS011;45749;51.140;17.184;2023-05-17T13:21:23;4.90;;;2.30;;
59876;SDS011;45749;51.140;17.184;2023-05-17T13:23:49;6.75;;;3.13;;
59876;SDS011;45749;51.140;17.184;2023-05-17T13:26:18;7.35;;;2.75;;
59876;SDS011;45749;51.140;17.184;2023-05-17T13:28:43;5.20;;;2.60;;
59876;SDS011;45749;51.140;17.184;2023-05-17T13:31:09;7.32;;;6.25;;
59876;SDS011;45749;51.140;17.184;2023-05-17T13:33:35;10.30;;;4.57;;
59876;SDS011;45749;51.140;17.184;2023-05-17T13:36:00;4.50;;;2.53;;
59876;SDS011;45749;51.140;17.184;2023-05-17T13:38:26;6.65;;;3.17;;
59876;SDS011;45749;51.140;17.184;2023-05-17T13:40:51;6.03;;;2.75;;
59876;SDS011;45749;51.140;17.184;2023-05-17T13:43:16;5.53;;;2.65;;
59876;SDS011;45749;51.140;17.184;2023-05-17T13:45:42;4.70;;;3.22;;
59876;SDS011;45749;51.140;17.184;2023-05-17T13:48:07;4.03;;;2.88;;
59876;SDS011;45749;51.140;17.184;2023-05-17T13:50:33;5.70;;;2.83;;
59876;SDS011;45749;51.140;17.184;2023-05-17T13:52:58;7.47;;;3.38;;
59876;SDS011;45749;51.140;17.184;2023-05-17T13:55:25;7.43;;;2.85;;
59876;SDS011;45749;51.140;17.184;2023-05-17T13:57:51;5.65;;;3.08;;
59876;SDS011;45749;51.140;17.184;2023-05-17T14:00:16;7.20;;;3.47;;
59876;SDS011;45749;51.140;17.184;2023-05-17T14:02:42;9.07;;;3.65;;
59876;SDS011;45749;51.140;17.184;2023-05-17T14:05:07;6.43;;;3.08;;
59876;SDS011;45749;51.140;17.184;2023-05-17T14:07:34;4.68;;;2.83;;
59876;SDS011;45749;51.140;17.184;2023-05-17T14:09:59;7.65;;;3.50;;
59876;SDS011;45749;51.140;17.184;2023-05-17T14:12:25;8.18;;;3.33;;
59876;SDS011;45749;51.140;17.184;2023-05-17T14:14:50;7.35;;;3.15;;
59876;SDS011;45749;51.140;17.184;2023-05-17T14:17:15;8.15;;;4.15;;
59876;SDS011;45749;51.140;17.184;2023-05-17T14:19:41;9.00;;;3.70;;
59876;SDS011;45749;51.140;17.184;2023-05-17T14:22:06;8.70;;;4.00;;
59876;SDS011;45749;51.140;17.184;2023-05-17T14:24:32;7.20;;;3.50;;
59876;SDS011;45749;51.140;17.184;2023-05-17T14:26:58;12.43;;;3.25;;
59876;SDS011;45749;51.140;17.184;2023-05-17T14:29:23;6.30;;;3.58;;
59876;SDS011;45749;51.140;17.184;2023-05-17T14:31:48;6.20;;;3.25;;
59876;SDS011;45749;51.140;17.184;2023-05-17T14:34:14;6.47;;;2.47;;
59876;SDS011;45749;51.140;17.184;2023-05-17T14:36:39;6.22;;;2.65;;
59876;SDS011;45749;51.140;17.184;2023-05-17T14:39:05;6.50;;;3.10;;
59876;SDS011;45749;51.140;17.184;2023-05-17T14:41:30;10.43;;;4.15;;